Archival Weather

Chicago O'Hare International

Chicago, Illinois (KORD)

Report from: Tuesday, February 27, 2024 12:51 AM CST
Current time: Tuesday, April 23, 2024 2:39 AM CDT

Current weather – Weather history – Daily summaries
Weather forecast

Temperature15.6°C (60.1°F)
Dew point11.7°C (53.1°F)
Winds 15 kts (7.7 m/s, 17.3 mph) South-Southwest (200°)
Wind gusts 28 kts (14.4 m/s, 32.2 mph)
Peak wind 28 kts (14.4 m/s, 32.2 mph) Southwest (220°) at 06:23
Visibility10 mi. (16.1 km)
Clouds Scattered clouds 2,200 ft. (671 m)
Ceiling: Broken clouds 25,000 ft. (7,620 m)
Altimeter29.44 in.Hg (997 mB)
Relative humidity78 %
Density altitude834 ft. (254 m)
Sea-level pressure99.7 kPa (997 mB, 29.43 in.Hg)
Remarks Automated weather observing station with precipitation discriminator
Flight conditions Visual Meteorological Conditions
Raw dataKORD 270651Z 20015G28KT 10SM SCT022 BKN250 16/12 A2944 RMK AO2 PK WND 22028/0623 SLP965 T01560117
An error has occurred. This application may no longer respond until reloaded. Reload 🗙